Seattle, Washington
Traffic Map
Current Weather Conditions
Seattle, Washington
Clear
Clear
59°
Feels Like: 59°
Wind Chill: 59° Ceiling: Unl
Heat Index: 59° Visibility: 10mi
Dew Point: 48° Wind: 3mph
Humidity: 67% Direction: 330° (NNW)
Pressure: 30.21in Gusts: 0mph
Raw Report DataKBFI 270453Z 33003KT 10SM CLR 15/09 A3021 RMK AO2 SLP228 T01500089 $
Traffic Incident Summary
Active as of:
Severity:
Category:
InformationThere was an issue retrieving the traffic information for this location. Please try a different location or try again shortly.
Advertisements